createdAt,value
2018-06-22T00:00:55.046Z,18.53
2018-06-22T00:01:55.073Z,18.56
2018-06-22T00:02:55.086Z,18.52
2018-06-22T00:03:55.106Z,18.52
2018-06-22T00:04:55.134Z,18.55
2018-06-22T00:05:54.983Z,18.58
2018-06-22T00:06:55.173Z,18.45
2018-06-22T00:07:55.191Z,18.5
2018-06-22T00:08:55.212Z,18.56
2018-06-22T00:09:55.238Z,18.5
2018-06-22T00:10:55.265Z,18.5
2018-06-22T00:11:55.009Z,18.35
2018-06-22T00:12:55.297Z,18.4
2018-06-22T00:13:55.317Z,18.41
2018-06-22T00:14:55.075Z,18.43
2018-06-22T00:15:55.368Z,18.37
2018-06-22T00:16:55.390Z,18.37
2018-06-22T00:17:55.152Z,18.41
2018-06-22T00:18:55.430Z,18.4
2018-06-22T00:19:55.182Z,18.34
2018-06-22T00:20:55.466Z,18.38
2018-06-22T00:21:55.487Z,18.35
2018-06-22T00:22:55.249Z,18.37
2018-06-22T00:23:55.537Z,18.26
2018-06-22T00:24:55.288Z,18.28
2018-06-22T00:25:55.585Z,18.29
2018-06-22T00:26:55.333Z,18.33
2018-06-22T00:27:55.355Z,18.28
2018-06-22T00:28:55.374Z,18.38
2018-06-22T00:29:55.393Z,18.34
2018-06-22T00:30:55.429Z,18.26
2018-06-22T00:31:55.707Z,18.25
2018-06-22T00:32:55.732Z,18.35
2018-06-22T00:33:55.742Z,18.29
2018-06-22T00:34:55.772Z,18.35
2018-06-22T00:35:55.524Z,18.28
2018-06-22T00:36:55.544Z,18.29
2018-06-22T00:37:55.831Z,18.34
2018-06-22T00:38:55.860Z,18.26
2018-06-22T00:39:55.603Z,18.29
2018-06-22T00:40:55.905Z,18.28
2018-06-22T00:41:55.647Z,18.26
2018-06-22T00:42:55.932Z,18.34
2018-06-22T00:43:55.697Z,18.37
2018-06-22T00:44:55.979Z,18.35
2018-06-22T00:45:56.011Z,18.26
2018-06-22T00:46:56.023Z,18.28
2018-06-22T00:47:55.776Z,18.37
2018-06-22T00:48:56.067Z,18.34
2018-06-22T00:49:55.819Z,18.33
2018-06-22T00:50:56.122Z,18.33
2018-06-22T00:51:56.124Z,18.33
2018-06-22T00:52:56.152Z,18.29
2018-06-22T00:53:56.164Z,18.31
2018-06-22T00:54:56.188Z,18.31
2018-06-22T00:55:55.993Z,18.33
2018-06-22T00:56:56.230Z,18.33
2018-06-22T00:57:56.261Z,18.2
2018-06-22T00:58:56.273Z,18.22
2018-06-22T00:59:56.293Z,18.25
2018-06-22T01:00:56.052Z,18.2
2018-06-22T01:01:56.401Z,18.19
2018-06-22T01:02:56.357Z,18.23
2018-06-22T01:03:56.378Z,18.2
2018-06-22T01:04:56.398Z,18.16
2018-06-22T01:05:56.444Z,18.19
2018-06-22T01:06:56.446Z,18.08
2018-06-22T01:07:56.464Z,18.11
2018-06-22T01:08:56.487Z,18.03
2018-06-22T01:09:56.505Z,18.07
2018-06-22T01:10:56.259Z,18.04
2018-06-22T01:11:56.541Z,18.05
2018-06-22T01:12:56.300Z,18
2018-06-22T01:13:56.591Z,18.04
2018-06-22T01:14:56.612Z,18
2018-06-22T01:15:56.375Z,17.98
2018-06-22T01:16:56.129Z,18
2018-06-22T01:17:56.422Z,18.1
2018-06-22T01:18:56.710Z,18.01
2018-06-22T01:19:56.446Z,18.01
2018-06-22T01:20:56.737Z,17.94
2018-06-22T01:21:56.771Z,17.98
2018-06-22T01:22:56.781Z,17.82
2018-06-22T01:23:56.644Z,17.97
2018-06-22T01:24:56.819Z,17.9
2018-06-22T01:25:56.840Z,17.87
2018-06-22T01:26:56.591Z,17.87
2018-06-22T01:27:56.984Z,17.85
2018-06-22T01:28:56.902Z,17.87
2018-06-22T01:29:56.676Z,17.87
2018-06-22T01:30:56.950Z,17.92
2018-06-22T01:31:56.701Z,17.79
2018-06-22T01:32:56.984Z,17.79
2018-06-22T01:33:57.008Z,17.76
2018-06-22T01:34:57.032Z,17.74
2018-06-22T01:35:56.804Z,17.78
2018-06-22T01:36:57.075Z,17.74
2018-06-22T01:37:57.089Z,17.68
2018-06-22T01:38:56.840Z,17.71
2018-06-22T01:39:57.138Z,17.67
2018-06-22T01:40:56.896Z,17.7
2018-06-22T01:41:57.179Z,17.71
2018-06-22T01:42:56.935Z,17.65
2018-06-22T01:43:57.213Z,17.72
2018-06-22T01:44:56.978Z,17.68
2018-06-22T01:45:56.991Z,17.54
2018-06-22T01:46:56.747Z,17.68
2018-06-22T01:47:57.033Z,17.68
2018-06-22T01:48:57.543Z,17.63
2018-06-22T01:49:56.805Z,17.64
2018-06-22T01:50:57.363Z,17.57
2018-06-22T01:51:57.383Z,17.54
2018-06-22T01:52:57.401Z,17.57
2018-06-22T01:53:57.421Z,17.54
2018-06-22T01:54:57.443Z,17.57
2018-06-22T01:55:57.516Z,17.51
2018-06-22T01:56:57.483Z,17.56
2018-06-22T01:57:57.507Z,17.54
2018-06-22T01:58:57.261Z,17.6
2018-06-22T01:59:57.281Z,17.56
2018-06-22T02:00:57.574Z,17.52
2018-06-22T02:01:57.588Z,17.49
2018-06-22T02:02:57.612Z,17.45
2018-06-22T02:03:57.628Z,17.51
2018-06-22T02:04:57.652Z,17.56
2018-06-22T02:05:57.908Z,17.48
2018-06-22T02:06:57.690Z,17.54
2018-06-22T02:07:57.449Z,17.56
2018-06-22T02:08:57.464Z,17.6
2018-06-22T02:09:57.753Z,17.48
2018-06-22T02:10:57.771Z,17.54
2018-06-22T02:11:57.796Z,17.49
2018-06-22T02:12:57.824Z,17.51
2018-06-22T02:13:57.572Z,17.54
2018-06-22T02:14:57.860Z,17.52
2018-06-22T02:15:57.881Z,17.48
2018-06-22T02:16:57.650Z,17.54
2018-06-22T02:17:57.920Z,17.44
2018-06-22T02:18:57.671Z,17.48
2018-06-22T02:19:57.970Z,17.46
2018-06-22T02:20:57.978Z,17.52
2018-06-22T02:21:57.997Z,17.52
2018-06-22T02:22:57.767Z,17.52
2018-06-22T02:23:58.048Z,17.52
2018-06-22T02:24:58.068Z,17.41
2018-06-22T02:25:57.816Z,17.48
2018-06-22T02:26:58.106Z,17.45
2018-06-22T02:27:58.120Z,17.42
2018-06-22T02:28:58.159Z,17.44
2018-06-22T02:29:58.161Z,17.51
2018-06-22T02:30:58.192Z,17.51
2018-06-22T02:31:58.214Z,17.49
2018-06-22T02:32:58.234Z,17.42
2018-06-22T02:33:57.989Z,17.49
2018-06-22T02:34:57.743Z,17.39
2018-06-22T02:35:58.039Z,17.36
2018-06-22T02:36:58.045Z,17.45
2018-06-22T02:37:58.065Z,17.39
2018-06-22T02:38:58.346Z,17.36
2018-06-22T02:39:58.375Z,17.39
2018-06-22T02:40:58.396Z,17.38
2018-06-22T02:41:58.150Z,17.34
2018-06-22T02:42:58.169Z,17.33
2018-06-22T02:43:58.458Z,17.3
2018-06-22T02:44:57.940Z,17.33
2018-06-22T02:45:58.239Z,17.3
2018-06-22T02:46:58.516Z,17.33
2018-06-22T02:47:58.533Z,17.23
2018-06-22T02:48:58.567Z,17.34
2018-06-22T02:49:58.580Z,17.24
2018-06-22T02:50:58.333Z,17.23
2018-06-22T02:51:58.617Z,17.23
2018-06-22T02:52:58.373Z,17.26
2018-06-22T02:53:58.655Z,17.2
2018-06-22T02:54:58.689Z,17.27
2018-06-22T02:55:58.430Z,17.2
2018-06-22T02:56:58.741Z,17.23
2018-06-22T02:57:58.742Z,17.24
2018-06-22T02:58:58.862Z,17.24
2018-06-22T02:59:59.041Z,17.24
2018-06-22T03:00:58.807Z,17.23
2018-06-22T03:01:58.831Z,17.23
2018-06-22T03:02:58.574Z,17.14
2018-06-22T03:03:58.880Z,17.19
2018-06-22T03:04:58.886Z,17.2
2018-06-22T03:05:58.906Z,17.22
2018-06-22T03:06:58.948Z,17.22
2018-06-22T03:07:58.687Z,17.14
2018-06-22T03:08:58.693Z,17.16
2018-06-22T03:09:58.718Z,17.14
2018-06-22T03:10:58.736Z,17.16
2018-06-22T03:11:59.029Z,17.14
2018-06-22T03:12:59.049Z,17.15
2018-06-22T03:13:58.797Z,17.14
2018-06-22T03:14:58.818Z,17.14
2018-06-22T03:15:58.844Z,17.12
2018-06-22T03:16:59.126Z,17.12
2018-06-22T03:17:59.165Z,17.09
2018-06-22T03:18:59.172Z,17.11
2018-06-22T03:19:59.193Z,17.09
2018-06-22T03:20:58.947Z,17.08
2018-06-22T03:21:58.963Z,17.09
2018-06-22T03:22:58.980Z,17.16
2018-06-22T03:23:59.271Z,17.11
2018-06-22T03:24:59.288Z,17.12
2018-06-22T03:25:59.308Z,17.02
2018-06-22T03:26:59.327Z,17.05
2018-06-22T03:27:59.082Z,17.08
2018-06-22T03:28:59.372Z,17.02
2018-06-22T03:29:59.396Z,17.06
2018-06-22T03:30:59.437Z,17.14
2018-06-22T03:31:59.703Z,17.04
2018-06-22T03:32:59.463Z,17.04
2018-06-22T03:33:59.204Z,17.04
2018-06-22T03:34:59.225Z,17.01
2018-06-22T03:35:59.511Z,17.06
2018-06-22T03:36:59.534Z,17.05
2018-06-22T03:37:59.551Z,17.05
2018-06-22T03:38:59.570Z,17.06
2018-06-22T03:39:59.595Z,16.93
2018-06-22T03:40:59.355Z,16.91
2018-06-22T03:41:59.635Z,17.08
2018-06-22T03:42:59.654Z,16.99
2018-06-22T03:43:59.673Z,16.99
2018-06-22T03:44:59.689Z,16.91
2018-06-22T03:45:59.713Z,16.97
2018-06-22T03:46:59.753Z,17.02
2018-06-22T03:47:59.752Z,17.04
2018-06-22T03:48:59.774Z,16.93
2018-06-22T03:49:59.796Z,17.05
2018-06-22T03:50:59.818Z,17.06
2018-06-22T03:51:59.836Z,16.99
2018-06-22T03:52:59.860Z,17.04
2018-06-22T03:53:59.875Z,16.97
2018-06-22T03:54:59.896Z,16.96
2018-06-22T03:55:59.648Z,17.12
2018-06-22T03:57:00.077Z,16.91
2018-06-22T03:57:59.961Z,17.09
2018-06-22T03:58:59.975Z,16.89
2018-06-22T03:59:59.725Z,16.94
2018-06-22T04:01:00.036Z,16.93
2018-06-22T04:02:00.042Z,17.11
2018-06-22T04:03:00.053Z,17.12
2018-06-22T04:03:59.811Z,17.04
2018-06-22T04:05:00.099Z,16.96
2018-06-22T04:06:00.120Z,17.02
2018-06-22T04:07:00.155Z,16.96
2018-06-22T04:08:00.164Z,17.11
2018-06-22T04:09:00.326Z,17.14
2018-06-22T04:09:59.979Z,16.94
2018-06-22T04:11:00.234Z,16.96
2018-06-22T04:12:00.246Z,17.04
2018-06-22T04:13:00.262Z,17.05
2018-06-22T04:13:59.748Z,17.02
2018-06-22T04:15:00.076Z,17.08
2018-06-22T04:16:00.329Z,17.02
2018-06-22T04:17:00.341Z,17.04
2018-06-22T04:18:00.358Z,17.02
2018-06-22T04:19:00.382Z,16.97
2018-06-22T04:20:00.408Z,16.97
2018-06-22T04:21:00.422Z,17.08
2018-06-22T04:22:00.446Z,17.08
2018-06-22T04:23:00.480Z,17.05
2018-06-22T04:24:00.488Z,17.12
2018-06-22T04:24:59.968Z,17.04
2018-06-22T04:26:00.526Z,17.12
2018-06-22T04:27:00.279Z,17.14
2018-06-22T04:28:00.296Z,17.05
2018-06-22T04:29:00.596Z,17.12
2018-06-22T04:30:00.611Z,17.16
2018-06-22T04:31:00.628Z,17.14
2018-06-22T04:32:00.375Z,17.11
2018-06-22T04:33:00.663Z,17.04
2018-06-22T04:34:00.684Z,17.11
2018-06-22T04:35:00.718Z,17.04
2018-06-22T04:36:00.460Z,17.02
2018-06-22T04:37:00.535Z,17.15
2018-06-22T04:38:00.506Z,17.04
2018-06-22T04:39:00.531Z,17.02
2018-06-22T04:40:00.605Z,17.04
2018-06-22T04:41:00.560Z,17.06
2018-06-22T04:42:00.576Z,17.05
2018-06-22T04:43:00.598Z,17.06
2018-06-22T04:44:00.889Z,17.09
2018-06-22T04:45:00.915Z,17.14
2018-06-22T04:46:00.921Z,16.93
2018-06-22T04:47:00.679Z,16.94
2018-06-22T04:48:00.704Z,17.01
2018-06-22T04:49:00.734Z,17.06
2018-06-22T04:50:00.746Z,17.06
2018-06-22T04:51:00.761Z,17.01
2018-06-22T04:52:01.053Z,17.06
2018-06-22T04:53:01.068Z,16.97
2018-06-22T04:54:01.093Z,17.04
2018-06-22T04:55:01.117Z,17.08
2018-06-22T04:56:01.148Z,17.14
2018-06-22T04:57:01.151Z,17.12
2018-06-22T04:58:01.178Z,17.02
2018-06-22T04:59:00.940Z,17.14
2018-06-22T05:00:01.211Z,17.15
2018-06-22T05:01:00.966Z,17.12
2018-06-22T05:02:01.251Z,17.14
2018-06-22T05:03:01.346Z,17.2
2018-06-22T05:04:01.026Z,17.16
2018-06-22T05:05:01.303Z,17.14
2018-06-22T05:06:01.076Z,17.11
2018-06-22T05:07:01.103Z,17.09
2018-06-22T05:08:01.371Z,17.16
2018-06-22T05:09:01.390Z,17.12
2018-06-22T05:10:01.143Z,17.15
2018-06-22T05:11:01.433Z,17.2
2018-06-22T05:12:01.188Z,17.11
2018-06-22T05:13:01.206Z,17.16
2018-06-22T05:14:01.493Z,17.2
2018-06-22T05:15:01.248Z,17.09
2018-06-22T05:16:01.264Z,17.12
2018-06-22T05:17:01.553Z,17.11
2018-06-22T05:18:01.316Z,17.16
2018-06-22T05:19:01.592Z,17.08
2018-06-22T05:20:01.349Z,17.05
2018-06-22T05:21:01.640Z,17.12
2018-06-22T05:22:01.127Z,17.12
2018-06-22T05:23:01.404Z,17.09
2018-06-22T05:24:01.695Z,17.05
2018-06-22T05:25:01.177Z,17.01
2018-06-22T05:26:01.472Z,17.11
2018-06-22T05:27:01.493Z,17.06
2018-06-22T05:28:01.800Z,16.97
2018-06-22T05:29:01.525Z,17.06
2018-06-22T05:30:01.818Z,16.99
2018-06-22T05:31:01.850Z,17.12
2018-06-22T05:32:01.857Z,17.06
2018-06-22T05:33:01.876Z,16.94
2018-06-22T05:34:01.898Z,17.04
2018-06-22T05:35:01.921Z,17.09
2018-06-22T05:36:01.435Z,16.97
2018-06-22T05:37:01.965Z,16.91
2018-06-22T05:38:01.978Z,17.11
2018-06-22T05:39:01.996Z,16.91
2018-06-22T05:40:02.020Z,16.89
2018-06-22T05:41:01.769Z,16.91
2018-06-22T05:42:01.809Z,16.89
2018-06-22T05:43:02.077Z,17.12
2018-06-22T05:44:02.102Z,17.05
2018-06-22T05:45:01.869Z,16.94
2018-06-22T05:46:02.138Z,17.05
2018-06-22T05:47:01.915Z,17.05
2018-06-22T05:48:02.182Z,17.04
2018-06-22T05:49:01.929Z,17.04
2018-06-22T05:50:02.218Z,17.09
2018-06-22T05:51:02.209Z,17.12
2018-06-22T05:52:02.259Z,17.19
2018-06-22T05:53:02.009Z,17.11
2018-06-22T05:54:02.363Z,17.2
2018-06-22T05:55:02.321Z,17.23
2018-06-22T05:56:02.337Z,17.26
2018-06-22T05:57:02.365Z,17.31
2018-06-22T05:58:02.386Z,17.34
2018-06-22T05:59:02.401Z,17.31
2018-06-22T06:00:02.429Z,17.48
2018-06-22T06:01:01.915Z,17.54
2018-06-22T06:02:02.465Z,17.54
2018-06-22T06:03:02.482Z,17.57
2018-06-22T06:04:02.499Z,17.59
2018-06-22T06:05:02.524Z,17.64
2018-06-22T06:06:02.007Z,17.64
2018-06-22T06:07:02.300Z,17.54
2018-06-22T06:08:02.581Z,17.64
2018-06-22T06:09:02.349Z,17.6
2018-06-22T06:10:02.395Z,17.59
2018-06-22T06:11:02.657Z,17.59
2018-06-22T06:12:02.674Z,17.63
2018-06-22T06:13:02.415Z,17.68
2018-06-22T06:14:02.444Z,17.65
2018-06-22T06:15:02.756Z,17.68
2018-06-22T06:16:02.770Z,17.57
2018-06-22T06:17:02.505Z,17.64
2018-06-22T06:18:02.518Z,17.59
2018-06-22T06:19:02.805Z,17.63
2018-06-22T06:20:02.944Z,17.63
2018-06-22T06:21:02.583Z,17.65
2018-06-22T06:22:02.916Z,17.64
2018-06-22T06:23:02.625Z,17.54
2018-06-22T06:24:02.917Z,17.57
2018-06-22T06:25:02.928Z,17.6
2018-06-22T06:26:02.946Z,17.54
2018-06-22T06:27:02.430Z,17.54
2018-06-22T06:28:02.985Z,17.54
2018-06-22T06:29:02.738Z,17.65
2018-06-22T06:30:03.052Z,17.63
2018-06-22T06:31:02.786Z,17.65
2018-06-22T06:32:02.546Z,17.67
2018-06-22T06:33:02.824Z,17.71
2018-06-22T06:34:02.852Z,17.68
2018-06-22T06:35:03.132Z,17.7
2018-06-22T06:36:02.881Z,17.71
2018-06-22T06:37:03.174Z,17.7
2018-06-22T06:38:03.205Z,17.72
2018-06-22T06:39:02.676Z,17.74
2018-06-22T06:40:02.977Z,17.74
2018-06-22T06:41:02.987Z,17.74
2018-06-22T06:42:03.027Z,17.87
2018-06-22T06:43:03.297Z,17.83
2018-06-22T06:44:03.064Z,17.82
2018-06-22T06:45:03.076Z,17.8
2018-06-22T06:46:03.108Z,17.79
2018-06-22T06:47:03.377Z,17.82
2018-06-22T06:48:03.408Z,17.83
2018-06-22T06:49:03.431Z,17.82
2018-06-22T06:50:03.173Z,17.86
2018-06-22T06:51:03.462Z,17.9
2018-06-22T06:52:03.225Z,17.87
2018-06-22T06:53:03.233Z,17.92
2018-06-22T06:54:03.277Z,17.9
2018-06-22T06:55:03.541Z,17.9
2018-06-22T06:56:03.564Z,17.9
2018-06-22T06:57:03.580Z,17.87
2018-06-22T06:58:03.342Z,17.92
2018-06-22T06:59:03.673Z,18.01
2018-06-22T07:00:03.387Z,17.95
2018-06-22T07:01:03.675Z,18.07
2018-06-22T07:02:03.686Z,18
2018-06-22T07:03:03.439Z,18
2018-06-22T07:04:03.733Z,18.03
2018-06-22T07:05:03.745Z,18.07
2018-06-22T07:06:03.789Z,18.08
2018-06-22T07:07:03.537Z,18.05
2018-06-22T07:08:03.818Z,18.04
2018-06-22T07:09:03.840Z,18.11
2018-06-22T07:10:03.327Z,18.05
2018-06-22T07:11:03.879Z,17.98
2018-06-22T07:12:03.622Z,17.94
2018-06-22T07:13:03.641Z,17.98
2018-06-22T07:14:03.681Z,17.89
2018-06-22T07:15:03.702Z,17.87
2018-06-22T07:16:03.983Z,17.92
2018-06-22T07:17:03.743Z,17.9
2018-06-22T07:18:03.748Z,17.89
2018-06-22T07:19:03.769Z,17.9
2018-06-22T07:20:04.070Z,17.9
2018-06-22T07:21:04.077Z,17.98
2018-06-22T07:22:04.103Z,17.98
2018-06-22T07:23:03.850Z,18
2018-06-22T07:24:03.884Z,17.98
2018-06-22T07:25:03.896Z,18.04
2018-06-22T07:26:03.917Z,17.92
2018-06-22T07:27:03.947Z,17.92
2018-06-22T07:28:04.221Z,17.94
2018-06-22T07:29:04.242Z,17.87
2018-06-22T07:30:04.271Z,17.97
2018-06-22T07:31:04.290Z,17.89
2018-06-22T07:32:04.315Z,17.8
2018-06-22T07:33:04.322Z,17.85
2018-06-22T07:34:04.346Z,17.87
2018-06-22T07:35:04.369Z,17.83
2018-06-22T07:36:04.707Z,17.83
2018-06-22T07:37:04.148Z,17.82
2018-06-22T07:38:04.436Z,17.82
2018-06-22T07:39:04.455Z,17.79
2018-06-22T07:40:04.472Z,17.74
2018-06-22T07:41:04.291Z,17.74
2018-06-22T07:42:04.250Z,17.71
2018-06-22T07:43:04.261Z,17.72
2018-06-22T07:44:04.795Z,17.68
2018-06-22T07:45:04.582Z,17.71
2018-06-22T07:46:04.335Z,17.74
2018-06-22T07:47:04.350Z,17.68
2018-06-22T07:48:04.367Z,17.72
2018-06-22T07:49:04.391Z,17.7
2018-06-22T07:50:04.674Z,17.74
2018-06-22T07:51:04.430Z,17.72
2018-06-22T07:52:04.734Z,17.76
2018-06-22T07:53:04.740Z,17.78
2018-06-22T07:54:04.764Z,17.71
2018-06-22T07:55:04.951Z,17.74
2018-06-22T07:56:04.803Z,17.74
2018-06-22T07:57:04.284Z,17.7
2018-06-22T07:58:04.954Z,17.71
2018-06-22T07:59:04.331Z,17.7
2018-06-22T08:00:04.384Z,17.64
2018-06-22T08:01:04.729Z,17.78
2018-06-22T08:02:04.929Z,17.76
2018-06-22T08:03:04.949Z,17.71
2018-06-22T08:04:04.968Z,17.64
2018-06-22T08:05:04.715Z,17.51
2018-06-22T08:06:05.023Z,17.49
2018-06-22T08:07:05.040Z,17.57
2018-06-22T08:08:05.043Z,17.56
2018-06-22T08:09:04.532Z,17.49
2018-06-22T08:10:05.094Z,17.56
2018-06-22T08:11:04.572Z,17.48
2018-06-22T08:12:04.868Z,17.51
2018-06-22T08:13:05.148Z,17.34
2018-06-22T08:14:04.904Z,17.52
2018-06-22T08:15:04.922Z,17.51
2018-06-22T08:16:05.218Z,17.57
2018-06-22T08:17:04.972Z,17.51
2018-06-22T08:18:04.999Z,17.56
2018-06-22T08:19:05.067Z,17.41
2018-06-22T08:20:05.043Z,17.52
2018-06-22T08:21:05.047Z,17.49
2018-06-22T08:22:05.073Z,17.46
2018-06-22T08:23:05.085Z,17.42
2018-06-22T08:24:05.373Z,17.45
2018-06-22T08:25:05.130Z,17.31
2018-06-22T08:26:05.417Z,17.42
2018-06-22T08:27:05.170Z,17.41
2018-06-22T08:28:05.220Z,17.34
2018-06-22T08:29:04.950Z,17.34
2018-06-22T08:30:05.508Z,17.38
2018-06-22T08:31:05.255Z,17.38
2018-06-22T08:32:05.285Z,17.41
2018-06-22T08:33:05.564Z,17.34
2018-06-22T08:34:05.071Z,17.34
2018-06-22T08:35:05.496Z,17.38
2018-06-22T08:36:05.388Z,17.48
2018-06-22T08:37:05.376Z,17.52
2018-06-22T08:38:05.660Z,17.46
2018-06-22T08:39:05.738Z,17.49
2018-06-22T08:40:05.448Z,17.51
2018-06-22T08:41:05.458Z,17.48
2018-06-22T08:42:05.275Z,17.52
2018-06-22T08:43:05.517Z,17.54
2018-06-22T08:44:05.784Z,17.46
2018-06-22T08:45:05.808Z,17.49
2018-06-22T08:46:05.580Z,17.57
2018-06-22T08:47:05.851Z,17.6
2018-06-22T08:48:05.612Z,17.54
2018-06-22T08:49:05.760Z,17.6
2018-06-22T08:50:05.382Z,17.57
2018-06-22T08:51:05.939Z,17.67
2018-06-22T08:52:05.955Z,17.6
2018-06-22T08:53:05.980Z,17.67
2018-06-22T08:54:06.012Z,17.72
2018-06-22T08:55:05.748Z,17.67
2018-06-22T08:56:05.842Z,17.71
2018-06-22T08:57:05.519Z,17.7
2018-06-22T08:58:05.542Z,17.74
2018-06-22T08:59:06.100Z,17.63
2018-06-22T09:00:06.118Z,17.74
2018-06-22T09:01:06.156Z,17.78
2018-06-22T09:02:05.913Z,17.82
2018-06-22T09:03:05.911Z,17.89
2018-06-22T09:04:05.670Z,17.86
2018-06-22T09:05:05.686Z,17.83
2018-06-22T09:06:06.247Z,17.87
2018-06-22T09:07:05.729Z,17.83
2018-06-22T09:08:06.311Z,17.83
2018-06-22T09:09:06.306Z,17.87
2018-06-22T09:10:06.331Z,17.97
2018-06-22T09:11:06.367Z,17.95
2018-06-22T09:12:05.847Z,17.98
2018-06-22T09:13:06.388Z,18.01
2018-06-22T09:14:05.873Z,18.07
2018-06-22T09:15:06.433Z,18.11
2018-06-22T09:16:06.446Z,18.05
2018-06-22T09:17:06.211Z,18.1
2018-06-22T09:18:06.499Z,18.11
2018-06-22T09:19:06.510Z,18.22
2018-06-22T09:20:06.549Z,18.25
2018-06-22T09:21:06.560Z,18.28
2018-06-22T09:22:06.311Z,18.28
2018-06-22T09:23:06.329Z,18.38
2018-06-22T09:24:06.349Z,18.4
2018-06-22T09:25:06.105Z,18.38
2018-06-22T09:26:06.390Z,18.43
2018-06-22T09:27:06.151Z,18.37
2018-06-22T09:28:06.441Z,18.38
2018-06-22T09:29:06.453Z,18.4
2018-06-22T09:30:06.475Z,18.44
2018-06-22T09:31:06.769Z,18.41
2018-06-22T09:32:06.523Z,18.43
2018-06-22T09:33:06.538Z,18.47
2018-06-22T09:34:06.557Z,18.45
2018-06-22T09:35:06.576Z,18.44
2018-06-22T09:36:06.876Z,18.49
2018-06-22T09:37:06.634Z,18.45
2018-06-22T09:38:06.912Z,18.52
2018-06-22T09:39:06.926Z,18.52
2018-06-22T09:40:06.681Z,18.5
2018-06-22T09:41:06.701Z,18.56
2018-06-22T09:42:06.731Z,18.59
2018-06-22T09:43:07.021Z,18.62
2018-06-22T09:44:06.773Z,18.58
2018-06-22T09:45:06.898Z,18.65
2018-06-22T09:46:07.075Z,18.6
2018-06-22T09:47:07.099Z,18.59
2018-06-22T09:48:06.852Z,18.56
2018-06-22T09:49:07.146Z,18.63
2018-06-22T09:50:07.163Z,18.62
2018-06-22T09:51:06.922Z,18.56
2018-06-22T09:52:06.984Z,18.58
2018-06-22T09:53:07.013Z,18.65
2018-06-22T09:54:07.242Z,18.58
2018-06-22T09:55:07.149Z,18.56
2018-06-22T09:56:06.763Z,18.58
2018-06-22T09:57:07.044Z,18.59
2018-06-22T09:58:07.329Z,18.58
2018-06-22T09:59:07.361Z,18.56
2018-06-22T10:00:07.377Z,18.52
2018-06-22T10:01:06.858Z,18.58
2018-06-22T10:02:07.157Z,18.58
2018-06-22T10:03:07.437Z,18.58
2018-06-22T10:04:06.927Z,18.73
2018-06-22T10:05:07.483Z,18.66
2018-06-22T10:06:07.607Z,18.73
2018-06-22T10:07:07.520Z,18.6
2018-06-22T10:08:07.320Z,18.6
2018-06-22T10:09:07.024Z,18.65
2018-06-22T10:10:07.317Z,18.58
2018-06-22T10:11:07.339Z,18.65
2018-06-22T10:12:07.623Z,18.58
2018-06-22T10:13:07.561Z,18.59
2018-06-22T10:14:07.400Z,18.63
2018-06-22T10:15:07.693Z,18.65
2018-06-22T10:16:07.440Z,18.7
2018-06-22T10:17:07.467Z,18.78
2018-06-22T10:18:07.751Z,18.74
2018-06-22T10:19:07.769Z,18.83
2018-06-22T10:20:07.799Z,18.86
2018-06-22T10:21:07.544Z,18.86
2018-06-22T10:22:07.300Z,18.93
2018-06-22T10:23:07.320Z,19.02
2018-06-22T10:24:07.661Z,19.07
2018-06-22T10:25:07.908Z,19.08
2018-06-22T10:26:07.933Z,19.07
2018-06-22T10:27:08.155Z,19.11
2018-06-22T10:28:07.962Z,19.15
2018-06-22T10:29:07.448Z,19.19
2018-06-22T10:30:07.743Z,19.09
2018-06-22T10:31:07.758Z,19.11
2018-06-22T10:32:07.780Z,18.99
2018-06-22T10:33:07.801Z,18.98
2018-06-22T10:34:08.192Z,19.04
2018-06-22T10:35:08.117Z,18.9
2018-06-22T10:36:07.865Z,18.92
2018-06-22T10:37:08.152Z,19.02
2018-06-22T10:38:08.175Z,18.99
2018-06-22T10:39:07.956Z,18.99
2018-06-22T10:40:07.682Z,18.92
2018-06-22T10:41:07.981Z,18.95
2018-06-22T10:42:07.997Z,19.02
2018-06-22T10:43:08.280Z,18.96
2018-06-22T10:44:08.041Z,19.02
2018-06-22T10:45:08.333Z,19
2018-06-22T10:46:08.743Z,19.12
2018-06-22T10:47:08.099Z,19.11
2018-06-22T10:48:08.123Z,19.24
2018-06-22T10:49:08.142Z,19.19
2018-06-22T10:50:07.910Z,19.3
2018-06-22T10:51:08.475Z,19.26
2018-06-22T10:52:08.219Z,19.27
2018-06-22T10:53:08.494Z,19.24
2018-06-22T10:54:08.520Z,19.24
2018-06-22T10:55:08.544Z,19.21
2018-06-22T10:56:08.560Z,19.24
2018-06-22T10:57:08.581Z,19.3
2018-06-22T10:58:08.600Z,19.29
2018-06-22T10:59:08.357Z,19.31
2018-06-22T11:00:08.111Z,19.4
2018-06-22T11:01:08.132Z,19.45
2018-06-22T11:02:08.688Z,19.36
2018-06-22T11:03:08.718Z,19.37
2018-06-22T11:04:08.733Z,19.4
2018-06-22T11:05:08.494Z,19.45
2018-06-22T11:06:08.507Z,19.39
2018-06-22T11:07:08.796Z,19.37
2018-06-22T11:08:08.284Z,19.45
2018-06-22T11:09:08.572Z,19.37
2018-06-22T11:10:08.591Z,19.54
2018-06-22T11:11:08.882Z,19.41
2018-06-22T11:12:08.905Z,19.52
2018-06-22T11:13:08.674Z,19.45
2018-06-22T11:14:08.846Z,19.58
2018-06-22T11:15:08.967Z,19.45
2018-06-22T11:16:08.988Z,19.59
2018-06-22T11:17:09.211Z,19.69
2018-06-22T11:18:09.033Z,19.76
2018-06-22T11:19:08.520Z,19.82
2018-06-22T11:20:09.078Z,19.86
2018-06-22T11:21:08.877Z,19.91
2018-06-22T11:22:08.850Z,20.03
2018-06-22T11:23:09.142Z,20.02
2018-06-22T11:24:08.906Z,20.13
2018-06-22T11:25:09.190Z,20.13
2018-06-22T11:26:08.950Z,20.26
2018-06-22T11:27:08.968Z,20.29
2018-06-22T11:28:08.986Z,20.25
2018-06-22T11:29:09.266Z,20.36
2018-06-22T11:30:08.766Z,20.41
2018-06-22T11:31:09.327Z,20.44
2018-06-22T11:32:09.486Z,20.55
2018-06-22T11:33:09.092Z,20.62
2018-06-22T11:34:08.849Z,20.6
2018-06-22T11:35:09.405Z,20.63
2018-06-22T11:36:09.424Z,20.7
2018-06-22T11:37:09.182Z,20.74
2018-06-22T11:38:09.201Z,20.75
2018-06-22T11:39:09.223Z,20.84
2018-06-22T11:40:09.512Z,20.8
2018-06-22T11:41:09.533Z,20.81
2018-06-22T11:42:09.564Z,20.82
2018-06-22T11:43:09.596Z,20.93
2018-06-22T11:44:09.070Z,20.95
2018-06-22T11:45:09.631Z,20.97
2018-06-22T11:46:09.648Z,21.09
2018-06-22T11:47:09.673Z,21.21
2018-06-22T11:48:09.693Z,21.27
2018-06-22T11:49:09.723Z,21.21
2018-06-22T11:50:09.475Z,21.3
2018-06-22T11:51:09.552Z,21.33
2018-06-22T11:52:09.789Z,21.37
2018-06-22T11:53:09.271Z,21.4
2018-06-22T11:54:09.292Z,21.43
2018-06-22T11:55:09.313Z,21.55
2018-06-22T11:56:09.876Z,21.55
2018-06-22T11:57:09.895Z,21.58
2018-06-22T11:58:09.648Z,21.69
2018-06-22T11:59:10.169Z,21.83
2018-06-22T12:00:09.698Z,21.89
2018-06-22T12:01:09.999Z,21.99
2018-06-22T12:02:10.006Z,22.04
2018-06-22T12:03:09.771Z,22.07
2018-06-22T12:04:09.520Z,22.17
2018-06-22T12:05:09.553Z,22.22
2018-06-22T12:06:09.830Z,22.22
2018-06-22T12:07:09.859Z,22.29
2018-06-22T12:08:10.145Z,22.23
2018-06-22T12:09:10.175Z,22.32
2018-06-22T12:10:09.924Z,22.38
2018-06-22T12:11:10.219Z,22.38
2018-06-22T12:12:09.979Z,22.44
2018-06-22T12:13:10.259Z,22.47
2018-06-22T12:14:10.019Z,22.5
2018-06-22T12:15:10.321Z,22.47
2018-06-22T12:16:09.797Z,22.48
2018-06-22T12:17:10.358Z,22.57
2018-06-22T12:18:10.112Z,22.6
2018-06-22T12:19:10.631Z,22.69
2018-06-22T12:20:10.158Z,22.81
2018-06-22T12:21:10.186Z,22.85
2018-06-22T12:22:10.473Z,22.93
2018-06-22T12:23:10.499Z,22.94
2018-06-22T12:24:10.247Z,22.99
2018-06-22T12:25:10.639Z,22.91
2018-06-22T12:26:10.297Z,23.03
2018-06-22T12:27:10.593Z,22.94
2018-06-22T12:28:10.617Z,23.09
2018-06-22T12:29:10.366Z,23.1
2018-06-22T12:30:10.392Z,23.24
2018-06-22T12:31:10.213Z,23.39
2018-06-22T12:32:10.438Z,23.25
2018-06-22T12:33:10.579Z,23.4
2018-06-22T12:34:10.752Z,23.54
2018-06-22T12:35:10.778Z,23.73
2018-06-22T12:36:10.816Z,23.68
2018-06-22T12:37:10.828Z,23.77
2018-06-22T12:38:10.579Z,23.81
2018-06-22T12:39:10.615Z,23.86
2018-06-22T12:40:10.901Z,23.92
2018-06-22T12:41:10.927Z,24.05
2018-06-22T12:42:10.677Z,24.01
2018-06-22T12:43:10.702Z,24.03
2018-06-22T12:44:10.722Z,24.1
2018-06-22T12:45:10.871Z,24.05
2018-06-22T12:46:10.772Z,24.1
2018-06-22T12:47:10.798Z,24.13
2018-06-22T12:48:11.149Z,24.23
2018-06-22T12:49:11.113Z,24.42
2018-06-22T12:50:10.904Z,24.53
2018-06-22T12:51:11.163Z,24.66
2018-06-22T12:52:11.188Z,24.66
2018-06-22T12:53:10.942Z,24.81
2018-06-22T12:54:11.240Z,24.89
2018-06-22T12:55:11.254Z,24.93
2018-06-22T12:56:11.352Z,24.98